Zeybe — TCMG4 — position and weather

sailwx.info

Track history (hours):
 
Tides and Currents Weather Stations Pressure Air Temp Water Temp Dewpoint Dewpoint Depression Visibility Wind Speed Wind Dir Waves Ship Positions

Zeybe

Last reported at 2017-Dec-04 04:09 UTC. Time now 2017-Dec-13 18:56 UTC.
Position N 37°19' E 026°51'.
Warning: this ship's position is 9 days out of date.

Length 70 m; draft 4.9 m.

Type: Ship. MMSI: 271042650.

Date/timePositionNaut miles runAvg speedWind from/ knotsBaromVisibWave heightAir tempDewpointWater temp
2017-Dec-04 04:09N 37°19' E 026°51'1 7.7
2017-Dec-04 03:59N 37°20' E 026°50'3 7.3
2017-Dec-04 03:30N 37°23' E 026°48'4 7.2
2017-Dec-04 03:00N 37°26' E 026°45'12 7.3
2017-Dec-04 01:20N 37°36' E 026°36'2 6.8
2017-Dec-04 01:00N 37°38' E 026°35'4 6.4
2017-Dec-04 00:24N 37°41' E 026°33'7 6.0
2017-Dec-03 23:14N 37°48' E 026°29'2 6.0
2017-Dec-03 22:55N 37°49' E 026°28'3 6.3
2017-Dec-03 22:28N 37°52' E 026°27'3 6.3
2017-Dec-03 22:00N 37°54' E 026°25'4 6.4
2017-Dec-03 21:26N 37°58' E 026°23'  
2017-Nov-29 17:28N 43°38' E 028°48'3 7.4
2017-Nov-29 17:00N 43°40' E 028°51'4 7.2
2017-Nov-29 16:30N 43°43' E 028°55'4 7.2
2017-Nov-29 16:00N 43°45' E 028°58'4 7.3
2017-Nov-29 15:30N 43°48' E 029°01'4 7.2
2017-Nov-29 15:00N 43°51' E 029°05'4 7.2
2017-Nov-29 14:30N 43°53' E 029°08'4 7.1
2017-Nov-29 14:00N 43°56' E 029°12'4 7.2
2017-Nov-29 13:30N 43°59' E 029°15'4 7.2
2017-Nov-29 13:00N 44°01' E 029°18'4 7.5
2017-Nov-29 12:30N 44°04' E 029°22'4 7.5
2017-Nov-29 11:59N 44°07' E 029°25'4 7.4
2017-Nov-29 11:28N 44°10' E 029°29'  
2017-Nov-26 16:40N 46°21' E 030°52'1 5.4
2017-Nov-26 16:30N 46°22' E 030°51'3 5.6
2017-Nov-26 15:54N 46°25' E 030°50'2 5.6
2017-Nov-26 15:29N 46°27' E 030°50'3 5.8
2017-Nov-26 15:00N 46°30' E 030°47'2 3.2
2017-Nov-26 14:30N 46°29' E 030°45'0 0.1
2017-Nov-26 14:00N 46°29' E 030°45'0 0.0
2017-Nov-26 13:30N 46°29' E 030°45'0 0.0
2017-Nov-26 12:59N 46°29' E 030°45'0 0.0
2017-Nov-26 12:30N 46°29' E 030°45'0 0.0
2017-Nov-26 12:00N 46°29' E 030°45'0 0.0
2017-Nov-26 11:30N 46°29' E 030°45'0 0.0
2017-Nov-26 11:00N 46°29' E 030°45'0 0.0
2017-Nov-26 10:30N 46°29' E 030°45'0 0.0
2017-Nov-26 10:00N 46°29' E 030°45'0 0.0
2017-Nov-26 09:30N 46°29' E 030°45'0 0.0
2017-Nov-26 09:00N 46°29' E 030°45'0 0.0
2017-Nov-26 08:30N 46°29' E 030°45'0 0.0
2017-Nov-26 08:00N 46°29' E 030°45'0 0.0
2017-Nov-26 07:30N 46°29' E 030°45'0 0.0
2017-Nov-26 07:00N 46°29' E 030°45'0 0.0
2017-Nov-26 06:30N 46°29' E 030°45'0 0.0
2017-Nov-26 06:00N 46°29' E 030°45'0 0.0
2017-Nov-26 05:30N 46°29' E 030°45'0 0.0
2017-Nov-26 05:00N 46°29' E 030°45'0 0.0
2017-Nov-26 04:30N 46°29' E 030°45'0 0.0
2017-Nov-26 04:00N 46°29' E 030°45'0 0.0
2017-Nov-26 03:30N 46°29' E 030°45'0 0.0
2017-Nov-26 03:00N 46°29' E 030°45'0 0.0
2017-Nov-26 02:30N 46°29' E 030°45'0 0.0
2017-Nov-26 02:00N 46°29' E 030°45'0 0.0
2017-Nov-26 01:30N 46°29' E 030°45'0 0.0
2017-Nov-26 01:00N 46°29' E 030°45'0 0.0
2017-Nov-26 00:30N 46°29' E 030°45'0 0.0
2017-Nov-26 00:00N 46°29' E 030°45'0 0.0
2017-Nov-25 23:30N 46°29' E 030°45'0 0.0
2017-Nov-25 23:00N 46°29' E 030°45'0 0.0
2017-Nov-25 22:30N 46°29' E 030°45'0 0.0
2017-Nov-25 22:00N 46°29' E 030°45'0 0.0
2017-Nov-25 21:30N 46°29' E 030°45'0 0.0
2017-Nov-25 21:00N 46°29' E 030°45'0 0.0
2017-Nov-25 20:30N 46°29' E 030°45'0 0.0
2017-Nov-25 20:00N 46°29' E 030°45'0 0.0
2017-Nov-25 19:30N 46°29' E 030°45'0 0.0
2017-Nov-25 19:00N 46°29' E 030°45'0 0.0
2017-Nov-25 18:30N 46°29' E 030°45'0 0.0
2017-Nov-25 18:00N 46°29' E 030°45'0 0.0
2017-Nov-25 17:30N 46°29' E 030°45'0 0.0
2017-Nov-25 17:00N 46°29' E 030°45'0 0.0
2017-Nov-25 16:30N 46°29' E 030°45'0 0.0
2017-Nov-25 16:00N 46°29' E 030°45'0 0.0
2017-Nov-25 15:30N 46°29' E 030°45'0 0.0
2017-Nov-25 15:00N 46°29' E 030°45'0 0.0
2017-Nov-25 14:30N 46°29' E 030°45'0 0.0
2017-Nov-25 13:59N 46°29' E 030°45'0 0.0
2017-Nov-25 13:30N 46°29' E 030°45'0 0.0
2017-Nov-25 13:00N 46°29' E 030°45'0 0.0
2017-Nov-25 12:30N 46°29' E 030°45'0 0.0
2017-Nov-25 12:00N 46°29' E 030°45'0 0.0
2017-Nov-25 11:30N 46°29' E 030°45'0 0.0
2017-Nov-25 11:00N 46°29' E 030°45'0 0.0
2017-Nov-25 10:30N 46°29' E 030°45'2 3.1
2017-Nov-25 10:00N 46°30' E 030°47'3 6.0
2017-Nov-25 09:30N 46°29' E 030°51'1 1.3
2017-Nov-25 09:00N 46°28' E 030°52'0 0.0
2017-Nov-25 08:30N 46°28' E 030°52'0 0.0
2017-Nov-25 07:51N 46°28' E 030°52'1 4.1
2017-Nov-25 07:30N 46°27' E 030°51'4 8.0
2017-Nov-25 06:59N 46°23' E 030°53'  
Track history (hours):
 
Tides and Currents Weather Stations Pressure Air Temp Water Temp Dewpoint Dewpoint Depression Visibility Wind Speed Wind Dir Waves Ship Positions

Zeybe

Last reported at 2017-Dec-04 04:09 UTC. Time now 2017-Dec-13 18:56 UTC.
Position N 37°19' E 026°51'.
Warning: this ship's position is 9 days out of date.

Length 70 m; draft 4.9 m.

Type: Ship. MMSI: 271042650.

Date/timePositionNaut miles runAvg speedWind from/ knotsBaromVisibWave heightAir tempDewpointWater temp
2017-Dec-04 04:09N 37°19' E 026°51'1 7.7
2017-Dec-04 03:59N 37°20' E 026°50'3 7.3
2017-Dec-04 03:30N 37°23' E 026°48'4 7.2
2017-Dec-04 03:00N 37°26' E 026°45'12 7.3
2017-Dec-04 01:20N 37°36' E 026°36'2 6.8
2017-Dec-04 01:00N 37°38' E 026°35'4 6.4
2017-Dec-04 00:24N 37°41' E 026°33'7 6.0
2017-Dec-03 23:14N 37°48' E 026°29'2 6.0
2017-Dec-03 22:55N 37°49' E 026°28'3 6.3
2017-Dec-03 22:28N 37°52' E 026°27'3 6.3
2017-Dec-03 22:00N 37°54' E 026°25'4 6.4
2017-Dec-03 21:26N 37°58' E 026°23'  
2017-Nov-29 17:28N 43°38' E 028°48'3 7.4
2017-Nov-29 17:00N 43°40' E 028°51'4 7.2
2017-Nov-29 16:30N 43°43' E 028°55'4 7.2
2017-Nov-29 16:00N 43°45' E 028°58'4 7.3
2017-Nov-29 15:30N 43°48' E 029°01'4 7.2
2017-Nov-29 15:00N 43°51' E 029°05'4 7.2
2017-Nov-29 14:30N 43°53' E 029°08'4 7.1
2017-Nov-29 14:00N 43°56' E 029°12'4 7.2
2017-Nov-29 13:30N 43°59' E 029°15'4 7.2
2017-Nov-29 13:00N 44°01' E 029°18'4 7.5
2017-Nov-29 12:30N 44°04' E 029°22'4 7.5
2017-Nov-29 11:59N 44°07' E 029°25'4 7.4
2017-Nov-29 11:28N 44°10' E 029°29'  
2017-Nov-26 16:40N 46°21' E 030°52'1 5.4
2017-Nov-26 16:30N 46°22' E 030°51'3 5.6
2017-Nov-26 15:54N 46°25' E 030°50'2 5.6
2017-Nov-26 15:29N 46°27' E 030°50'3 5.8
2017-Nov-26 15:00N 46°30' E 030°47'2 3.2
2017-Nov-26 14:30N 46°29' E 030°45'0 0.1
2017-Nov-26 14:00N 46°29' E 030°45'0 0.0
2017-Nov-26 13:30N 46°29' E 030°45'0 0.0
2017-Nov-26 12:59N 46°29' E 030°45'0 0.0
2017-Nov-26 12:30N 46°29' E 030°45'0 0.0
2017-Nov-26 12:00N 46°29' E 030°45'0 0.0
2017-Nov-26 11:30N 46°29' E 030°45'0 0.0
2017-Nov-26 11:00N 46°29' E 030°45'0 0.0
2017-Nov-26 10:30N 46°29' E 030°45'0 0.0
2017-Nov-26 10:00N 46°29' E 030°45'0 0.0
2017-Nov-26 09:30N 46°29' E 030°45'0 0.0
2017-Nov-26 09:00N 46°29' E 030°45'0 0.0
2017-Nov-26 08:30N 46°29' E 030°45'0 0.0
2017-Nov-26 08:00N 46°29' E 030°45'0 0.0
2017-Nov-26 07:30N 46°29' E 030°45'0 0.0
2017-Nov-26 07:00N 46°29' E 030°45'0 0.0
2017-Nov-26 06:30N 46°29' E 030°45'0 0.0
2017-Nov-26 06:00N 46°29' E 030°45'0 0.0
2017-Nov-26 05:30N 46°29' E 030°45'0 0.0
2017-Nov-26 05:00N 46°29' E 030°45'0 0.0
2017-Nov-26 04:30N 46°29' E 030°45'0 0.0
2017-Nov-26 04:00N 46°29' E 030°45'0 0.0
2017-Nov-26 03:30N 46°29' E 030°45'0 0.0
2017-Nov-26 03:00N 46°29' E 030°45'0 0.0
2017-Nov-26 02:30N 46°29' E 030°45'0 0.0
2017-Nov-26 02:00N 46°29' E 030°45'0 0.0
2017-Nov-26 01:30N 46°29' E 030°45'0 0.0
2017-Nov-26 01:00N 46°29' E 030°45'0 0.0
2017-Nov-26 00:30N 46°29' E 030°45'0 0.0
2017-Nov-26 00:00N 46°29' E 030°45'0 0.0
2017-Nov-25 23:30N 46°29' E 030°45'0 0.0
2017-Nov-25 23:00N 46°29' E 030°45'0 0.0
2017-Nov-25 22:30N 46°29' E 030°45'0 0.0
2017-Nov-25 22:00N 46°29' E 030°45'0 0.0
2017-Nov-25 21:30N 46°29' E 030°45'0 0.0
2017-Nov-25 21:00N 46°29' E 030°45'0 0.0
2017-Nov-25 20:30N 46°29' E 030°45'0 0.0
2017-Nov-25 20:00N 46°29' E 030°45'0 0.0
2017-Nov-25 19:30N 46°29' E 030°45'0 0.0
2017-Nov-25 19:00N 46°29' E 030°45'0 0.0
2017-Nov-25 18:30N 46°29' E 030°45'0 0.0
2017-Nov-25 18:00N 46°29' E 030°45'0 0.0
2017-Nov-25 17:30N 46°29' E 030°45'0 0.0
2017-Nov-25 17:00N 46°29' E 030°45'0 0.0
2017-Nov-25 16:30N 46°29' E 030°45'0 0.0
2017-Nov-25 16:00N 46°29' E 030°45'0 0.0
2017-Nov-25 15:30N 46°29' E 030°45'0 0.0
2017-Nov-25 15:00N 46°29' E 030°45'0 0.0
2017-Nov-25 14:30N 46°29' E 030°45'0 0.0
2017-Nov-25 13:59N 46°29' E 030°45'0 0.0
2017-Nov-25 13:30N 46°29' E 030°45'0 0.0
2017-Nov-25 13:00N 46°29' E 030°45'0 0.0
2017-Nov-25 12:30N 46°29' E 030°45'0 0.0
2017-Nov-25 12:00N 46°29' E 030°45'0 0.0
2017-Nov-25 11:30N 46°29' E 030°45'0 0.0
2017-Nov-25 11:00N 46°29' E 030°45'0 0.0
2017-Nov-25 10:30N 46°29' E 030°45'2 3.1
2017-Nov-25 10:00N 46°30' E 030°47'3 6.0
2017-Nov-25 09:30N 46°29' E 030°51'1 1.3
2017-Nov-25 09:00N 46°28' E 030°52'0 0.0
2017-Nov-25 08:30N 46°28' E 030°52'0 0.0
2017-Nov-25 07:51N 46°28' E 030°52'1 4.1
2017-Nov-25 07:30N 46°27' E 030°51'4 8.0
2017-Nov-25 06:59N 46°23' E 030°53'  

Dump ship's entire track history